Time;durP1;ratioP1;P1;durP2;ratioP2;P2;SDS_P1;SDS_P2;PMS_P1;PMS_P2;Temp;Humidity;BMP_temperature;BMP_pressure;BME280_temperature;BME280_humidity;BME280_pressure;Samples;Min_cycle;Max_cycle;Signal;HPM_P1;HPM_P2
2022/07/29 00:01:59;;;;;;;0.20;0.20;;;;;;;;;;5043783;28;20032;-75
2022/07/29 00:04:25;;;;;;;0.20;0.20;;;;;;;;;;5050656;28;20040;-75
2022/07/29 00:06:50;;;;;;;0.68;0.55;;;;;;;;;;5052331;28;20032;-74
2022/07/29 00:09:16;;;;;;;0.47;0.47;;;;;;;;;;5053228;28;20037;-74
2022/07/29 00:11:41;;;;;;;0.20;0.20;;;;;;;;;;5051942;28;20025;-75
2022/07/29 00:14:07;;;;;;;0.20;0.20;;;;;;;;;;5051780;28;20052;-76
2022/07/29 00:16:32;;;;;;;0.20;0.20;;;;;;;;;;5053931;28;20037;-77
2022/07/29 00:18:58;;;;;;;0.40;0.40;;;;;;;;;;5046795;28;20045;-75
2022/07/29 00:21:23;;;;;;;0.25;0.25;;;;;;;;;;5050681;28;20009;-75
2022/07/29 00:23:48;;;;;;;0.25;0.25;;;;;;;;;;5050790;28;20040;-76
2022/07/29 00:26:14;;;;;;;0.20;0.20;;;;;;;;;;5049862;28;20384;-76
2022/07/29 00:28:39;;;;;;;0.15;0.15;;;;;;;;;;5051454;28;20029;-75
2022/07/29 00:31:05;;;;;;;0.20;0.20;;;;;;;;;;5052849;28;20009;-76
2022/07/29 00:33:30;;;;;;;0.40;0.40;;;;;;;;;;5026552;28;20117;-76
2022/07/29 00:35:56;;;;;;;0.20;0.20;;;;;;;;;;5051544;28;20384;-76
2022/07/29 00:38:21;;;;;;;0.25;0.25;;;;;;;;;;5051844;28;20025;-76
2022/07/29 00:40:47;;;;;;;0.20;0.20;;;;;;;;;;5052263;28;20108;-76
2022/07/29 00:43:13;;;;;;;0.20;0.20;;;;;;;;;;5052554;28;20029;-76
2022/07/29 00:45:39;;;;;;;0.30;0.30;;;;;;;;;;5051408;28;20029;-75
2022/07/29 00:48:05;;;;;;;0.20;0.20;;;;;;;;;;5052748;28;20349;-76
2022/07/29 00:50:31;;;;;;;0.10;0.10;;;;;;;;;;5052949;28;20057;-75
2022/07/29 00:52:57;;;;;;;0.20;0.20;;;;;;;;;;5051196;28;20079;-74
2022/07/29 00:55:23;;;;;;;0.20;0.20;;;;;;;;;;5052547;28;20497;-76
2022/07/29 00:57:48;;;;;;;0.10;0.10;;;;;;;;;;5052306;28;20063;-75
2022/07/29 01:00:17;;;;;;;4.82;4.03;;;;;;;;;;5051672;28;20061;-75
2022/07/29 01:02:42;;;;;;;0.20;0.20;;;;;;;;;;5050330;28;20106;-75
2022/07/29 01:05:08;;;;;;;0.20;0.20;;;;;;;;;;5055692;28;20056;-75
2022/07/29 01:07:34;;;;;;;0.10;0.10;;;;;;;;;;5056569;28;20464;-75
2022/07/29 01:10:01;;;;;;;0.40;0.40;;;;;;;;;;5056761;28;20029;-74
2022/07/29 01:12:28;;;;;;;0.25;0.25;;;;;;;;;;5056737;28;20032;-74
2022/07/29 01:14:55;;;;;;;0.20;0.20;;;;;;;;;;5055648;28;20040;-74
2022/07/29 01:17:23;;;;;;;1.10;0.50;;;;;;;;;;5039436;28;20059;-74
2022/07/29 01:19:52;;;;;;;0.30;0.30;;;;;;;;;;5057107;28;20021;-74
2022/07/29 01:22:36;;;;;;;0.10;0.10;;;;;;;;;;5057039;28;20036;-73
2022/07/29 01:25:01;;;;;;;0.20;0.20;;;;;;;;;;5056693;28;20468;-74
2022/07/29 01:27:38;;;;;;;0.30;0.30;;;;;;;;;;5056917;28;20025;-73
2022/07/29 01:30:04;;;;;;;0.20;0.20;;;;;;;;;;5058315;28;20071;-74
2022/07/29 01:32:31;;;;;;;0.60;0.60;;;;;;;;;;5055516;28;20414;-75
2022/07/29 01:34:56;;;;;;;0.15;0.15;;;;;;;;;;5056638;28;20049;-74
2022/07/29 01:37:42;;;;;;;0.20;0.20;;;;;;;;;;5056318;28;20506;-74
2022/07/29 01:40:11;;;;;;;0.20;0.20;;;;;;;;;;5055912;28;20044;-74
2022/07/29 01:42:41;;;;;;;0.20;0.20;;;;;;;;;;5055558;28;20435;-74
2022/07/29 01:45:14;;;;;;;0.20;0.20;;;;;;;;;;5053531;28;20426;-74
2022/07/29 01:47:55;;;;;;;1.45;0.65;;;;;;;;;;5054932;28;20492;-73
2022/07/29 01:50:23;;;;;;;0.20;0.20;;;;;;;;;;5056428;28;20473;-73
2022/07/29 01:52:52;;;;;;;0.27;0.27;;;;;;;;;;5055246;28;20029;-74
2022/07/29 01:55:20;;;;;;;0.20;0.20;;;;;;;;;;5056251;28;20017;-74
2022/07/29 01:57:47;;;;;;;0.20;0.20;;;;;;;;;;5054934;28;20047;-75
2022/07/29 02:00:12;;;;;;;0.20;0.20;;;;;;;;;;5056191;28;20029;-75
2022/07/29 02:02:40;;;;;;;0.20;0.20;;;;;;;;;;5054776;28;20125;-74
2022/07/29 02:05:07;;;;;;;0.20;0.20;;;;;;;;;;5056107;28;20503;-73
2022/07/29 02:07:33;;;;;;;1.40;0.85;;;;;;;;;;5054599;28;20120;-74
2022/07/29 02:10:00;;;;;;;0.20;0.20;;;;;;;;;;5056145;28;20423;-74
2022/07/29 02:12:26;;;;;;;0.50;0.50;;;;;;;;;;5055979;28;20392;-74
2022/07/29 02:14:52;;;;;;;0.20;0.20;;;;;;;;;;5053109;28;20041;-74
2022/07/29 02:17:22;;;;;;;0.20;0.20;;;;;;;;;;5055720;28;20021;-74
2022/07/29 02:19:48;;;;;;;0.30;0.30;;;;;;;;;;5055975;28;20029;-73
2022/07/29 02:22:14;;;;;;;0.20;0.20;;;;;;;;;;5054603;28;20123;-74
2022/07/29 02:24:41;;;;;;;0.20;0.20;;;;;;;;;;5055748;28;20094;-74
2022/07/29 02:27:07;;;;;;;0.20;0.20;;;;;;;;;;5055620;28;20021;-75
2022/07/29 02:29:34;;;;;;;0.20;0.20;;;;;;;;;;5054121;28;20090;-75
2022/07/29 02:32:00;;;;;;;0.20;0.20;;;;;;;;;;5054178;28;20047;-75
2022/07/29 02:34:26;;;;;;;0.20;0.20;;;;;;;;;;5055293;28;20135;-75
2022/07/29 02:36:53;;;;;;;0.20;0.20;;;;;;;;;;5055595;28;20025;-74
2022/07/29 02:39:19;;;;;;;0.22;0.22;;;;;;;;;;5055414;28;20029;-74
2022/07/29 02:41:47;;;;;;;0.30;0.30;;;;;;;;;;5055527;28;20112;-74
2022/07/29 02:44:16;;;;;;;0.40;0.40;;;;;;;;;;5053709;28;20481;-73
2022/07/29 02:46:47;;;;;;;0.20;0.20;;;;;;;;;;5054215;28;20037;-74
2022/07/29 02:49:32;;;;;;;0.20;0.20;;;;;;;;;;5055389;28;20036;-73
2022/07/29 02:51:59;;;;;;;0.20;0.20;;;;;;;;;;5055193;28;20025;-73
2022/07/29 02:54:40;;;;;;;0.20;0.20;;;;;;;;;;5055363;28;20075;-73
2022/07/29 02:57:18;;;;;;;0.20;0.20;;;;;;;;;;5054937;28;20519;-74
2022/07/29 02:59:45;;;;;;;0.22;0.22;;;;;;;;;;5055195;28;20507;-74
2022/07/29 03:02:11;;;;;;;0.20;0.20;;;;;;;;;;5053126;28;20029;-74
2022/07/29 03:04:38;;;;;;;0.20;0.20;;;;;;;;;;5050470;28;20422;-75
2022/07/29 03:07:05;;;;;;;0.60;0.60;;;;;;;;;;5050920;28;20066;-75
2022/07/29 03:09:30;;;;;;;0.35;0.35;;;;;;;;;;5050948;28;20029;-75
2022/07/29 03:11:56;;;;;;;0.22;0.22;;;;;;;;;;5051078;28;20036;-75
2022/07/29 03:14:23;;;;;;;0.25;0.25;;;;;;;;;;5051085;28;20032;-74
2022/07/29 03:16:49;;;;;;;0.20;0.20;;;;;;;;;;5051319;28;20033;-74
2022/07/29 03:19:14;;;;;;;0.20;0.20;;;;;;;;;;5050917;28;20033;-74
2022/07/29 03:21:40;;;;;;;0.20;0.20;;;;;;;;;;5050771;28;20033;-74
2022/07/29 03:24:06;;;;;;;0.20;0.20;;;;;;;;;;5051121;28;20033;-74
2022/07/29 03:26:31;;;;;;;0.32;0.32;;;;;;;;;;5049896;28;20102;-72
2022/07/29 03:28:57;;;;;;;0.20;0.20;;;;;;;;;;5050759;28;20043;-75
2022/07/29 03:31:22;;;;;;;0.20;0.20;;;;;;;;;;5050461;28;20503;-75
2022/07/29 03:33:48;;;;;;;0.20;0.20;;;;;;;;;;5050590;28;20049;-74
2022/07/29 03:36:13;;;;;;;0.30;0.30;;;;;;;;;;5050330;28;20392;-73
2022/07/29 03:38:40;;;;;;;0.20;0.20;;;;;;;;;;5050405;28;20115;-74
2022/07/29 03:41:08;;;;;;;0.30;0.30;;;;;;;;;;5050509;28;20499;-74
2022/07/29 03:43:35;;;;;;;0.20;0.20;;;;;;;;;;5050705;28;20040;-73
2022/07/29 03:46:03;;;;;;;0.20;0.20;;;;;;;;;;5050946;28;20029;-74
2022/07/29 03:48:30;;;;;;;1.25;1.25;;;;;;;;;;5051343;28;20151;-75
2022/07/29 03:50:56;;;;;;;0.28;0.28;;;;;;;;;;5050732;28;20431;-74
2022/07/29 03:53:22;;;;;;;0.20;0.20;;;;;;;;;;5072258;28;20017;-74
2022/07/29 03:55:50;;;;;;;0.30;0.30;;;;;;;;;;5073251;28;20040;-75
2022/07/29 03:58:18;;;;;;;0.20;0.20;;;;;;;;;;5058795;28;20056;-75
2022/07/29 04:00:44;;;;;;;0.20;0.20;;;;;;;;;;5050548;28;20029;-74
2022/07/29 04:03:10;;;;;;;0.20;0.20;;;;;;;;;;5048937;28;20106;-73
2022/07/29 04:05:35;;;;;;;1.55;0.40;;;;;;;;;;5050110;28;20111;-73
2022/07/29 04:08:01;;;;;;;0.20;0.20;;;;;;;;;;5049676;28;20548;-75
2022/07/29 04:10:27;;;;;;;0.20;0.20;;;;;;;;;;5049872;28;20075;-75
2022/07/29 04:12:53;;;;;;;0.82;0.82;;;;;;;;;;5049681;28;20099;-74
2022/07/29 04:15:18;;;;;;;0.20;0.20;;;;;;;;;;5049696;28;20036;-74
2022/07/29 04:17:44;;;;;;;0.10;0.10;;;;;;;;;;5049742;28;20113;-74
2022/07/29 04:20:12;;;;;;;0.30;0.30;;;;;;;;;;5049861;28;20024;-74
2022/07/29 04:22:38;;;;;;;2.83;2.65;;;;;;;;;;5048050;28;20029;-73
2022/07/29 04:25:04;;;;;;;3.83;1.20;;;;;;;;;;5049904;28;20469;-74
2022/07/29 04:27:30;;;;;;;0.20;0.20;;;;;;;;;;5049644;28;20096;-73
2022/07/29 04:29:56;;;;;;;0.20;0.20;;;;;;;;;;5049020;28;20036;-73
2022/07/29 04:32:21;;;;;;;0.20;0.20;;;;;;;;;;5029387;28;20068;-75
2022/07/29 04:34:47;;;;;;;0.22;0.22;;;;;;;;;;5046871;28;20060;-73
2022/07/29 04:37:12;;;;;;;0.25;0.25;;;;;;;;;;5048228;28;20036;-75
2022/07/29 04:39:38;;;;;;;0.20;0.20;;;;;;;;;;5046105;28;20045;-74
2022/07/29 04:42:03;;;;;;;0.20;0.20;;;;;;;;;;5046442;28;20037;-74
2022/07/29 04:44:29;;;;;;;0.40;0.40;;;;;;;;;;5046834;28;20025;-76
2022/07/29 04:46:55;;;;;;;0.10;0.10;;;;;;;;;;5049428;28;20037;-75
2022/07/29 04:49:20;;;;;;;0.20;0.20;;;;;;;;;;5046226;28;20025;-75
2022/07/29 04:51:46;;;;;;;0.20;0.20;;;;;;;;;;5046766;28;20021;-73
2022/07/29 04:54:11;;;;;;;0.20;0.20;;;;;;;;;;5047109;28;20041;-74
2022/07/29 04:56:37;;;;;;;0.20;0.20;;;;;;;;;;5042330;28;20039;-74
2022/07/29 04:59:02;;;;;;;0.30;0.30;;;;;;;;;;5042530;28;20029;-75
2022/07/29 05:01:27;;;;;;;0.20;0.20;;;;;;;;;;5047653;28;20262;-77
2022/07/29 05:03:53;;;;;;;0.20;0.20;;;;;;;;;;5046624;28;20033;-75
2022/07/29 05:06:19;;;;;;;12.40;11.60;;;;;;;;;;5046897;28;20044;-74
2022/07/29 05:08:44;;;;;;;0.20;0.20;;;;;;;;;;5047830;28;20029;-74
2022/07/29 05:11:10;;;;;;;0.20;0.20;;;;;;;;;;5049121;28;20194;-74
2022/07/29 05:13:35;;;;;;;0.10;0.10;;;;;;;;;;5048704;28;20028;-74
2022/07/29 05:16:01;;;;;;;0.20;0.20;;;;;;;;;;5047579;28;20025;-73
2022/07/29 05:18:26;;;;;;;0.20;0.20;;;;;;;;;;5030818;28;20039;-75
2022/07/29 05:20:52;;;;;;;0.20;0.20;;;;;;;;;;5048874;28;20787;-75
2022/07/29 05:23:17;;;;;;;0.20;0.20;;;;;;;;;;5047829;28;20120;-74
2022/07/29 05:25:43;;;;;;;0.20;0.20;;;;;;;;;;5049048;28;20022;-74
2022/07/29 05:28:08;;;;;;;0.20;0.20;;;;;;;;;;5056815;28;20090;-75
2022/07/29 05:30:34;;;;;;;0.10;0.10;;;;;;;;;;5047436;28;20369;-75
2022/07/29 05:32:59;;;;;;;0.20;0.20;;;;;;;;;;5048952;28;20080;-74
2022/07/29 05:35:25;;;;;;;0.20;0.20;;;;;;;;;;5048490;28;20049;-74
2022/07/29 05:37:50;;;;;;;0.22;0.22;;;;;;;;;;5048224;28;20037;-77
2022/07/29 05:40:16;;;;;;;0.20;0.20;;;;;;;;;;5048928;28;20032;-74
2022/07/29 05:42:42;;;;;;;0.20;0.20;;;;;;;;;;5048565;28;20025;-76
2022/07/29 05:45:08;;;;;;;0.20;0.20;;;;;;;;;;5046510;28;20033;-75
2022/07/29 05:47:33;;;;;;;0.20;0.20;;;;;;;;;;5047225;28;20110;-75
2022/07/29 05:49:59;;;;;;;0.20;0.20;;;;;;;;;;5058456;28;20021;-74
2022/07/29 05:52:24;;;;;;;0.20;0.20;;;;;;;;;;5048202;28;20111;-73
2022/07/29 05:54:50;;;;;;;0.85;0.68;;;;;;;;;;5050294;28;20041;-74
2022/07/29 05:57:21;;;;;;;0.25;0.25;;;;;;;;;;5050182;28;20056;-74
2022/07/29 05:59:46;;;;;;;0.22;0.22;;;;;;;;;;5051415;28;20043;-75
2022/07/29 06:02:12;;;;;;;0.20;0.20;;;;;;;;;;5050728;28;20059;-74
2022/07/29 06:04:37;;;;;;;0.20;0.20;;;;;;;;;;5057131;28;20064;-75
2022/07/29 06:07:03;;;;;;;4.40;3.03;;;;;;;;;;5069715;28;20032;-73
2022/07/29 06:09:29;;;;;;;0.25;0.25;;;;;;;;;;5071774;28;20500;-74
2022/07/29 06:11:54;;;;;;;0.20;0.20;;;;;;;;;;5070687;28;20029;-77
2022/07/29 06:14:20;;;;;;;0.20;0.20;;;;;;;;;;5039391;28;20156;-76
2022/07/29 06:16:45;;;;;;;0.28;0.28;;;;;;;;;;5051542;28;20017;-75
2022/07/29 06:19:11;;;;;;;0.30;0.30;;;;;;;;;;5050677;28;20395;-75
2022/07/29 06:21:36;;;;;;;0.30;0.30;;;;;;;;;;5050403;28;20021;-75
2022/07/29 06:24:02;;;;;;;0.20;0.20;;;;;;;;;;5051277;28;20033;-74
2022/07/29 06:26:27;;;;;;;0.38;0.38;;;;;;;;;;5050654;28;20025;-75
2022/07/29 06:28:53;;;;;;;0.30;0.30;;;;;;;;;;5051614;28;20417;-75
2022/07/29 06:31:18;;;;;;;0.30;0.30;;;;;;;;;;5050519;28;20317;-75
2022/07/29 06:33:44;;;;;;;0.30;0.30;;;;;;;;;;5051198;28;20044;-75
2022/07/29 06:36:09;;;;;;;0.30;0.30;;;;;;;;;;5051204;28;20025;-74
2022/07/29 06:38:35;;;;;;;0.30;0.30;;;;;;;;;;5049596;28;20033;-74
2022/07/29 06:41:05;;;;;;;0.40;0.40;;;;;;;;;;5051018;28;20037;-75
2022/07/29 06:43:33;;;;;;;4.03;3.63;;;;;;;;;;5051339;28;20033;-73
2022/07/29 06:46:04;;;;;;;0.30;0.30;;;;;;;;;;5049918;28;20476;-74
2022/07/29 06:48:30;;;;;;;0.30;0.30;;;;;;;;;;5049709;28;20107;-74
2022/07/29 06:50:55;;;;;;;0.30;0.30;;;;;;;;;;5050924;28;20104;-73
2022/07/29 06:53:21;;;;;;;0.38;0.38;;;;;;;;;;5056066;28;20131;-74
2022/07/29 06:55:46;;;;;;;0.30;0.30;;;;;;;;;;5062817;28;20044;-75
2022/07/29 06:58:13;;;;;;;0.52;0.52;;;;;;;;;;5069805;28;20037;-73
2022/07/29 07:00:39;;;;;;;0.52;0.52;;;;;;;;;;5070318;28;20028;-76
2022/07/29 07:03:05;;;;;;;0.40;0.40;;;;;;;;;;5070385;28;20021;-75
2022/07/29 07:05:30;;;;;;;0.30;0.30;;;;;;;;;;5069459;28;20032;-76
2022/07/29 07:07:56;;;;;;;0.40;0.40;;;;;;;;;;5070882;28;20032;-75
2022/07/29 07:10:21;;;;;;;0.38;0.38;;;;;;;;;;5070337;28;20021;-76
2022/07/29 07:12:46;;;;;;;0.40;0.40;;;;;;;;;;5070909;28;20052;-74
2022/07/29 07:15:12;;;;;;;0.38;0.38;;;;;;;;;;5070644;28;20052;-75
2022/07/29 07:17:37;;;;;;;0.30;0.30;;;;;;;;;;5070629;28;20526;-74
2022/07/29 07:20:04;;;;;;;0.52;0.52;;;;;;;;;;5068151;28;20025;-75
2022/07/29 07:22:32;;;;;;;1.00;1.00;;;;;;;;;;5039575;28;20029;-76
2022/07/29 07:24:59;;;;;;;;;;;;;;;;;;5033471;28;20028;-73
2022/07/29 07:27:24;;;;;;;0.40;0.40;;;;;;;;;;5050339;28;19966;-73
2022/07/29 07:29:50;;;;;;;0.52;0.52;;;;;;;;;;5050318;28;20021;-73
2022/07/29 07:32:16;;;;;;;0.40;0.40;;;;;;;;;;5054108;28;20029;-74
2022/07/29 07:34:42;;;;;;;0.40;0.40;;;;;;;;;;5048369;28;20516;-74
2022/07/29 07:37:08;;;;;;;0.40;0.40;;;;;;;;;;5048243;28;20037;-73
2022/07/29 07:39:34;;;;;;;0.40;0.40;;;;;;;;;;5049344;28;20032;-74
2022/07/29 07:42:00;;;;;;;0.30;0.30;;;;;;;;;;5049745;28;20039;-73
2022/07/29 07:44:25;;;;;;;0.30;0.30;;;;;;;;;;5046936;28;20135;-73
2022/07/29 07:46:51;;;;;;;0.40;0.40;;;;;;;;;;5048596;28;20044;-78
2022/07/29 07:49:16;;;;;;;0.50;0.50;;;;;;;;;;5049855;28;20025;-75
2022/07/29 07:51:42;;;;;;;2.88;0.57;;;;;;;;;;5049635;28;20072;-77
2022/07/29 07:54:07;;;;;;;0.50;0.50;;;;;;;;;;5046814;28;20128;-75
2022/07/29 07:56:33;;;;;;;0.40;0.40;;;;;;;;;;5043972;28;20052;-75
2022/07/29 07:58:58;;;;;;;0.50;0.50;;;;;;;;;;5036825;28;20029;-74
2022/07/29 08:01:24;;;;;;;0.40;0.40;;;;;;;;;;5045661;28;20056;-74
2022/07/29 08:03:50;;;;;;;0.40;0.40;;;;;;;;;;5054721;28;20023;-74
2022/07/29 08:06:15;;;;;;;0.30;0.30;;;;;;;;;;5058810;28;20025;-74
2022/07/29 08:08:41;;;;;;;0.50;0.50;;;;;;;;;;5056004;28;20441;-76
2022/07/29 08:11:07;;;;;;;0.43;0.43;;;;;;;;;;5045391;28;20016;-72
2022/07/29 08:13:32;;;;;;;0.50;0.50;;;;;;;;;;5048620;28;20559;-73
2022/07/29 08:16:00;;;;;;;0.50;0.50;;;;;;;;;;5047449;28;20029;-74
2022/07/29 08:18:26;;;;;;;0.40;0.40;;;;;;;;;;5047014;28;20029;-73
2022/07/29 08:20:52;;;;;;;0.40;0.40;;;;;;;;;;5043468;28;20025;-73
2022/07/29 08:23:18;;;;;;;0.40;0.40;;;;;;;;;;5022088;28;20553;-72
2022/07/29 08:25:44;;;;;;;0.40;0.40;;;;;;;;;;5031813;28;20029;-74
2022/07/29 08:28:10;;;;;;;0.40;0.40;;;;;;;;;;5053076;28;20120;-76
2022/07/29 08:30:35;;;;;;;8.35;2.28;;;;;;;;;;5035423;28;20384;-74
2022/07/29 08:33:01;;;;;;;5.30;1.63;;;;;;;;;;5051704;28;20537;-74
2022/07/29 08:35:27;;;;;;;0.47;0.47;;;;;;;;;;5048239;28;20055;-73
2022/07/29 08:37:52;;;;;;;0.40;0.40;;;;;;;;;;5046017;28;20056;-75
2022/07/29 08:40:19;;;;;;;1.75;1.27;;;;;;;;;;5039631;28;20516;-75
2022/07/29 08:42:45;;;;;;;1.80;1.30;;;;;;;;;;5035321;28;20183;-75
2022/07/29 08:45:10;;;;;;;0.40;0.40;;;;;;;;;;5035426;28;20528;-73
2022/07/29 08:47:39;;;;;;;1.38;0.65;;;;;;;;;;5035057;28;20029;-74
2022/07/29 08:50:05;;;;;;;0.40;0.40;;;;;;;;;;5045975;28;20070;-75
2022/07/29 08:52:32;;;;;;;0.50;0.50;;;;;;;;;;5034958;28;20021;-72
2022/07/29 08:54:58;;;;;;;0.40;0.40;;;;;;;;;;5045264;28;20128;-74
2022/07/29 08:57:24;;;;;;;1.50;1.05;;;;;;;;;;5042646;28;20829;-75
2022/07/29 08:59:52;;;;;;;1.25;0.82;;;;;;;;;;5037147;28;20111;-73
2022/07/29 09:02:22;;;;;;;0.82;0.82;;;;;;;;;;5027952;28;20029;-73
2022/07/29 09:04:48;;;;;;;0.80;0.80;;;;;;;;;;5029129;28;20037;-75
2022/07/29 09:07:17;;;;;;;0.50;0.50;;;;;;;;;;5035236;28;20026;-73
2022/07/29 09:09:42;;;;;;;;;;;;;;;;;;5027704;28;20059;-75
2022/07/29 09:12:11;;;;;;;4.50;1.60;;;;;;;;;;5030422;28;20369;-74
2022/07/29 09:14:37;;;;;;;2.13;1.75;;;;;;;;;;5041382;28;20094;-76
2022/07/29 09:17:02;;;;;;;2.53;2.03;;;;;;;;;;5046467;28;20114;-75
2022/07/29 09:19:30;;;;;;;0.52;0.52;;;;;;;;;;5047082;28;20079;-75
2022/07/29 09:21:59;;;;;;;0.40;0.40;;;;;;;;;;5043290;28;20440;-73
2022/07/29 09:24:26;;;;;;;0.43;0.43;;;;;;;;;;5044796;28;20025;-74
2022/07/29 09:26:52;;;;;;;2.38;1.90;;;;;;;;;;5038179;28;20457;-73
2022/07/29 09:29:18;;;;;;;9.48;7.25;;;;;;;;;;5023738;28;20025;-74
2022/07/29 09:31:45;;;;;;;3.22;1.15;;;;;;;;;;5019388;28;20044;-73
2022/07/29 09:34:11;;;;;;;0.47;0.43;;;;;;;;;;5037472;28;20055;-74
2022/07/29 09:36:43;;;;;;;0.73;0.73;;;;;;;;;;5037263;28;20025;-74
2022/07/29 09:39:10;;;;;;;0.40;0.40;;;;;;;;;;5040855;28;20040;-73
2022/07/29 09:41:53;;;;;;;2.00;0.95;;;;;;;;;;5050642;28;20079;-79
2022/07/29 09:44:19;;;;;;;1.75;0.90;;;;;;;;;;5047274;28;20017;-74
2022/07/29 09:47:06;;;;;;;0.80;0.80;;;;;;;;;;5036325;28;20481;-73
2022/07/29 09:49:49;;;;;;;0.95;0.90;;;;;;;;;;5042087;28;20024;-74
2022/07/29 09:52:15;;;;;;;1.13;1.02;;;;;;;;;;5041948;28;20029;-74
2022/07/29 09:54:40;;;;;;;2.33;0.88;;;;;;;;;;5041814;28;20043;-75
2022/07/29 09:57:08;;;;;;;1.27;0.95;;;;;;;;;;5047643;28;20445;-74
2022/07/29 09:59:34;;;;;;;1.85;1.75;;;;;;;;;;5039278;28;20025;-75
2022/07/29 10:01:59;;;;;;;0.60;0.60;;;;;;;;;;5034810;28;20021;-74
2022/07/29 10:04:38;;;;;;;1.98;1.10;;;;;;;;;;5037488;28;20030;-73
2022/07/29 10:07:04;;;;;;;6.50;1.45;;;;;;;;;;5040061;28;20029;-73
2022/07/29 10:09:31;;;;;;;0.60;0.60;;;;;;;;;;5049595;28;20033;-77
2022/07/29 10:12:23;;;;;;;5.50;1.77;;;;;;;;;;5032336;28;20039;-75
2022/07/29 10:14:48;;;;;;;5.28;1.42;;;;;;;;;;5047703;28;20084;-75
2022/07/29 10:17:15;;;;;;;1.63;0.88;;;;;;;;;;5031570;28;20606;-75
2022/07/29 10:19:42;;;;;;;0.60;0.60;;;;;;;;;;5049978;28;20025;-73
2022/07/29 10:22:08;;;;;;;0.70;0.70;;;;;;;;;;5048309;28;20036;-76
2022/07/29 10:24:35;;;;;;;2.50;1.08;;;;;;;;;;5041136;28;20104;-76
2022/07/29 10:27:01;;;;;;;2.30;1.30;;;;;;;;;;5052868;28;20361;-75
2022/07/29 10:29:31;;;;;;;5.10;1.63;;;;;;;;;;5060991;28;20071;-76
2022/07/29 10:32:15;;;;;;;2.25;1.63;;;;;;;;;;5054050;28;20751;-74
2022/07/29 10:34:59;;;;;;;2.72;1.85;;;;;;;;;;5067716;28;20474;-76
2022/07/29 10:37:43;;;;;;;1.38;1.08;;;;;;;;;;5062108;28;20386;-75
2022/07/29 10:43:04;;;;;;;1.55;1.08;;;;;;;;;;5046990;28;20607;-74
2022/07/29 10:45:32;;;;;;;6.10;1.23;;;;;;;;;;5039486;28;20060;-74
2022/07/29 10:48:05;;;;;;;0.82;0.82;;;;;;;;;;5042279;28;20064;-75
2022/07/29 10:50:49;;;;;;;0.40;0.40;;;;;;;;;;5041872;28;20052;-75
2022/07/29 10:53:14;;;;;;;1.08;0.63;;;;;;;;;;5048954;28;20056;-76
2022/07/29 10:55:42;;;;;;;3.78;0.93;;;;;;;;;;5039481;28;20446;-73
2022/07/29 10:58:18;;;;;;;4.10;1.88;;;;;;;;;;5052237;28;20029;-74
2022/07/29 11:00:44;;;;;;;1.70;1.17;;;;;;;;;;5049334;28;20031;-73
2022/07/29 11:03:30;;;;;;;16.15;1.50;;;;;;;;;;5041803;28;20036;-76
2022/07/29 11:05:56;;;;;;;8.43;2.58;;;;;;;;;;5036917;28;20103;-75
2022/07/29 11:08:25;;;;;;;0.60;0.60;;;;;;;;;;5048001;28;20480;-75
2022/07/29 11:10:53;;;;;;;4.05;1.60;;;;;;;;;;5044497;28;20041;-74
2022/07/29 11:13:37;;;;;;;0.55;0.55;;;;;;;;;;5048807;28;20033;-75
2022/07/29 11:16:02;;;;;;;1.88;1.08;;;;;;;;;;5041656;28;20170;-76
2022/07/29 11:18:28;;;;;;;4.43;1.73;;;;;;;;;;5036800;28;20100;-73
2022/07/29 11:20:54;;;;;;;1.10;0.77;;;;;;;;;;5043573;28;20025;-74
2022/07/29 11:23:35;;;;;;;2.03;1.48;;;;;;;;;;5050355;28;20029;-77
2022/07/29 11:26:19;;;;;;;2.58;1.58;;;;;;;;;;5028924;28;20025;-76
2022/07/29 11:29:06;;;;;;;1.25;0.98;;;;;;;;;;5034979;28;20038;-75
2022/07/29 11:31:35;;;;;;;3.72;1.75;;;;;;;;;;5050305;28;20559;-75
2022/07/29 11:34:19;;;;;;;2.40;1.55;;;;;;;;;;5050112;28;20056;-74
2022/07/29 11:37:03;;;;;;;3.13;1.15;;;;;;;;;;5049075;28;20083;-73
2022/07/29 11:39:28;;;;;;;3.38;1.45;;;;;;;;;;5050791;28;20111;-75
2022/07/29 11:42:14;;;;;;;2.83;1.05;;;;;;;;;;5048864;28;20116;-74
2022/07/29 11:44:58;;;;;;;3.70;1.27;;;;;;;;;;5030557;28;20030;-75
2022/07/29 11:47:25;;;;;;;6.47;1.92;;;;;;;;;;5012178;28;20029;-73
2022/07/29 11:49:51;;;;;;;1.70;0.82;;;;;;;;;;5049163;28;20407;-74
2022/07/29 11:52:17;;;;;;;0.55;0.55;;;;;;;;;;5048558;28;20410;-73
2022/07/29 11:54:43;;;;;;;2.15;1.45;;;;;;;;;;5048462;28;20059;-75
2022/07/29 11:57:08;;;;;;;0.40;0.40;;;;;;;;;;5048396;28;20086;-75
2022/07/29 11:59:41;;;;;;;3.60;1.63;;;;;;;;;;5049488;28;20021;-74
2022/07/29 12:02:07;;;;;;;0.68;0.68;;;;;;;;;;5030764;28;20590;-75
2022/07/29 12:04:32;;;;;;;3.15;1.55;;;;;;;;;;5049374;28;20072;-73
2022/07/29 12:06:58;;;;;;;2.92;1.15;;;;;;;;;;5049746;28;20017;-75
2022/07/29 12:09:24;;;;;;;1.55;0.82;;;;;;;;;;5048660;28;20111;-75
2022/07/29 12:11:55;;;;;;;0.60;0.57;;;;;;;;;;5050024;28;20024;-75
2022/07/29 12:14:28;;;;;;;2.72;0.80;;;;;;;;;;5047649;28;20646;-74
2022/07/29 12:16:53;;;;;;;2.85;1.52;;;;;;;;;;5049672;28;20033;-75
2022/07/29 12:19:19;;;;;;;0.63;0.63;;;;;;;;;;5048424;28;20031;-74
2022/07/29 12:21:49;;;;;;;4.50;0.82;;;;;;;;;;5048688;28;20106;-74
2022/07/29 12:24:15;;;;;;;2.00;0.75;;;;;;;;;;5052392;28;20057;-74
2022/07/29 12:26:55;;;;;;;2.67;1.88;;;;;;;;;;5053419;28;20028;-75
2022/07/29 12:29:20;;;;;;;4.53;1.45;;;;;;;;;;5036498;28;20076;-75
2022/07/29 12:31:46;;;;;;;1.98;0.82;;;;;;;;;;5027237;28;20052;-76
2022/07/29 12:34:13;;;;;;;0.80;0.70;;;;;;;;;;5031653;28;20465;-74
2022/07/29 12:36:38;;;;;;;0.95;0.90;;;;;;;;;;5048385;28;20048;-75
2022/07/29 12:39:04;;;;;;;2.17;0.90;;;;;;;;;;5049127;28;20069;-75
2022/07/29 12:41:30;;;;;;;4.88;2.10;;;;;;;;;;5044431;28;20025;-75
2022/07/29 12:43:55;;;;;;;1.55;1.25;;;;;;;;;;5040413;28;20044;-76
2022/07/29 12:46:21;;;;;;;2.38;1.45;;;;;;;;;;5036707;28;20473;-76
2022/07/29 12:48:50;;;;;;;2.00;1.52;;;;;;;;;;5042531;28;20388;-75
2022/07/29 12:51:16;;;;;;;1.67;0.80;;;;;;;;;;5043564;28;20056;-74
2022/07/29 12:54:01;;;;;;;2.70;1.88;;;;;;;;;;5045908;28;20114;-73
2022/07/29 12:56:26;;;;;;;1.65;1.52;;;;;;;;;;5030812;28;20040;-73
2022/07/29 12:58:52;;;;;;;5.88;1.65;;;;;;;;;;5048585;28;20381;-75
2022/07/29 13:01:19;;;;;;;2.65;1.13;;;;;;;;;;5047254;28;20465;-75
2022/07/29 13:03:46;;;;;;;2.45;1.20;;;;;;;;;;5049235;28;20044;-74
2022/07/29 13:06:30;;;;;;;4.40;1.50;;;;;;;;;;5029174;28;20025;-75
2022/07/29 13:08:59;;;;;;;0.73;0.73;;;;;;;;;;5047587;28;20032;-73
2022/07/29 13:11:32;;;;;;;1.70;1.02;;;;;;;;;;5028774;28;20056;-78
2022/07/29 13:13:58;;;;;;;1.70;1.17;;;;;;;;;;5028986;28;20687;-72
2022/07/29 13:16:23;;;;;;;1.67;1.02;;;;;;;;;;5046706;28;20040;-74
2022/07/29 13:19:02;;;;;;;2.35;0.80;;;;;;;;;;5045147;28;20037;-74
2022/07/29 13:21:27;;;;;;;;;;;;;;;;;;5045939;28;20025;-74
2022/07/29 13:23:53;;;;;;;0.67;0.67;;;;;;;;;;5046680;28;19909;-75
2022/07/29 13:26:19;;;;;;;2.20;1.15;;;;;;;;;;5046443;28;20341;-75
2022/07/29 13:28:45;;;;;;;1.10;1.08;;;;;;;;;;5028993;28;20087;-73
2022/07/29 13:31:10;;;;;;;1.40;1.30;;;;;;;;;;5043492;28;20036;-73
2022/07/29 13:33:36;;;;;;;2.38;1.13;;;;;;;;;;5046633;28;20110;-73
2022/07/29 13:36:01;;;;;;;1.40;0.90;;;;;;;;;;5046789;28;20029;-73
2022/07/29 13:38:27;;;;;;;0.40;0.40;;;;;;;;;;5045136;28;20029;-74
2022/07/29 13:40:52;;;;;;;2.42;1.42;;;;;;;;;;5042882;28;20037;-75
2022/07/29 13:43:17;;;;;;;4.93;2.72;;;;;;;;;;5045177;28;20469;-75
2022/07/29 13:45:43;;;;;;;0.50;0.50;;;;;;;;;;5046290;28;20048;-74
2022/07/29 13:48:09;;;;;;;3.90;1.15;;;;;;;;;;5046770;28;20033;-75
2022/07/29 13:50:34;;;;;;;0.60;0.60;;;;;;;;;;5046479;28;20033;-74
2022/07/29 13:52:59;;;;;;;1.65;1.05;;;;;;;;;;5045787;28;20020;-74
2022/07/29 13:55:25;;;;;;;1.80;1.50;;;;;;;;;;5045957;28;20512;-76
2022/07/29 13:57:51;;;;;;;0.98;0.70;;;;;;;;;;5045516;28;20528;-75
2022/07/29 14:00:16;;;;;;;0.38;0.38;;;;;;;;;;5046719;28;20485;-78
2022/07/29 14:02:42;;;;;;;5.15;1.73;;;;;;;;;;5046073;28;20033;-76
2022/07/29 14:05:08;;;;;;;1.27;0.93;;;;;;;;;;5044881;28;20063;-74
2022/07/29 14:07:33;;;;;;;2.10;1.13;;;;;;;;;;5046161;28;20029;-76
2022/07/29 14:09:59;;;;;;;0.65;0.60;;;;;;;;;;5046299;28;20036;-77
2022/07/29 14:12:24;;;;;;;0.50;0.50;;;;;;;;;;5049832;28;20033;-75
2022/07/29 14:14:50;;;;;;;1.52;0.93;;;;;;;;;;5048247;28;20043;-75
2022/07/29 14:17:15;;;;;;;2.08;1.10;;;;;;;;;;5047001;28;20437;-75
2022/07/29 14:19:41;;;;;;;11.40;1.50;;;;;;;;;;5048860;28;20098;-77
2022/07/29 14:22:07;;;;;;;2.45;0.88;;;;;;;;;;5048522;28;20067;-75
2022/07/29 14:24:34;;;;;;;0.93;0.90;;;;;;;;;;5049597;28;20298;-75
2022/07/29 14:27:01;;;;;;;2.47;1.33;;;;;;;;;;5048473;28;20033;-77
2022/07/29 14:29:26;;;;;;;0.57;0.57;;;;;;;;;;5049512;28;20025;-74
2022/07/29 14:31:52;;;;;;;0.68;0.68;;;;;;;;;;5049776;28;20033;-76
2022/07/29 14:34:17;;;;;;;1.25;0.80;;;;;;;;;;5049460;28;20052;-74
2022/07/29 14:36:43;;;;;;;1.30;0.75;;;;;;;;;;5049382;28;20035;-74
2022/07/29 14:39:08;;;;;;;1.02;0.82;;;;;;;;;;5049864;28;20029;-74
2022/07/29 14:41:34;;;;;;;1.13;1.02;;;;;;;;;;5041719;28;20025;-75
2022/07/29 14:44:00;;;;;;;6.68;1.00;;;;;;;;;;5013906;28;20140;-73
2022/07/29 14:46:26;;;;;;;0.63;0.63;;;;;;;;;;5038261;28;20100;-74
2022/07/29 14:48:51;;;;;;;2.50;1.13;;;;;;;;;;5040307;28;20120;-75